createdAt,value
2023-12-27T00:03:07.731Z,13.70
2023-12-27T00:08:09.878Z,15.30
2023-12-27T00:13:11.552Z,13.71
2023-12-27T00:18:13.568Z,13.15
2023-12-27T00:23:15.367Z,13.88
2023-12-27T00:28:17.058Z,14.37
2023-12-27T00:33:19.690Z,14.82
2023-12-27T00:38:21.397Z,14.82
2023-12-27T00:43:23.053Z,11.83
2023-12-27T00:48:24.936Z,12.76
2023-12-27T00:53:26.680Z,12.11
2023-12-27T00:58:28.396Z,11.83
2023-12-27T01:03:30.194Z,13.62
2023-12-27T01:08:31.858Z,14.76
2023-12-27T01:13:33.670Z,13.43
2023-12-27T01:18:35.617Z,14.32
2023-12-27T01:23:37.469Z,12.57
2023-12-27T01:28:39.119Z,12.28
2023-12-27T01:33:42.412Z,12.27
2023-12-27T01:38:44.194Z,12.99
2023-12-27T01:43:45.941Z,12.30
2023-12-27T01:48:47.702Z,12.84
2023-12-27T01:53:50.523Z,12.75
2023-12-27T01:58:52.170Z,13.81
2023-12-27T02:03:53.992Z,13.78
2023-12-27T02:08:55.945Z,14.21
2023-12-27T02:13:57.706Z,15.39
2023-12-27T02:19:01.720Z,14.66
2023-12-27T02:24:04.943Z,14.71
2023-12-27T02:29:06.648Z,14.97
2023-12-27T02:34:08.519Z,15.04
2023-12-27T02:39:10.391Z,14.63
2023-12-27T02:44:12.090Z,12.21
2023-12-27T02:49:13.952Z,11.48
2023-12-27T02:54:16.142Z,15.37
2023-12-27T02:59:17.871Z,15.35
2023-12-27T03:04:19.670Z,15.65
2023-12-27T03:09:21.349Z,15.60
2023-12-27T03:14:23.024Z,14.93
2023-12-27T03:19:26.460Z,15.35
2023-12-27T03:24:28.390Z,13.72
2023-12-27T03:29:30.181Z,15.76
2023-12-27T03:34:32.155Z,14.66
2023-12-27T03:39:33.964Z,14.68
2023-12-27T03:44:35.733Z,13.83
2023-12-27T03:49:37.707Z,11.15
2023-12-27T03:54:39.851Z,13.05
2023-12-27T03:59:42.216Z,13.94
2023-12-27T04:04:44.135Z,13.90
2023-12-27T04:09:45.913Z,14.50
2023-12-27T04:14:47.750Z,14.34
2023-12-27T04:19:49.501Z,14.68
2023-12-27T04:24:51.202Z,14.04
2023-12-27T04:29:52.862Z,15.29
2023-12-27T04:34:54.579Z,14.32
2023-12-27T04:39:56.270Z,14.76
2023-12-27T04:44:58.010Z,15.66
2023-12-27T04:49:59.954Z,15.20
2023-12-27T04:55:01.879Z,14.70
2023-12-27T05:00:05.396Z,14.22
2023-12-27T05:05:08.843Z,13.20
2023-12-27T05:10:10.680Z,15.45
2023-12-27T05:15:12.453Z,16.39
2023-12-27T05:20:14.582Z,16.24
2023-12-27T05:25:16.344Z,15.25
2023-12-27T05:30:18.489Z,15.29
2023-12-27T05:35:20.312Z,13.55
2023-12-27T05:40:22.004Z,13.40
2023-12-27T05:45:23.996Z,14.10
2023-12-27T05:50:25.720Z,14.60
2023-12-27T05:55:27.375Z,14.91
2023-12-27T06:00:29.214Z,15.69
2023-12-27T06:05:31.088Z,14.42
2023-12-27T06:10:33.308Z,15.04
2023-12-27T06:15:35.023Z,15.77
2023-12-27T06:20:36.920Z,14.81
2023-12-27T06:25:38.653Z,14.65
2023-12-27T06:30:40.375Z,16.16
2023-12-27T06:35:42.961Z,15.39
2023-12-27T06:40:44.640Z,16.29
2023-12-27T06:45:46.461Z,15.92
2023-12-27T06:50:49.673Z,15.39
2023-12-27T06:55:51.391Z,15.87
2023-12-27T07:00:53.185Z,15.17
2023-12-27T07:05:55.089Z,15.32
2023-12-27T07:10:57.014Z,15.77
2023-12-27T07:15:59.128Z,15.86
2023-12-27T07:21:00.922Z,14.65
2023-12-27T07:26:02.762Z,14.89
2023-12-27T07:31:04.965Z,15.14
2023-12-27T07:36:08.272Z,15.37
2023-12-27T07:41:10.083Z,14.66
2023-12-27T07:46:11.967Z,14.68
2023-12-27T07:51:13.695Z,14.97
2023-12-27T07:56:16.931Z,15.56
2023-12-27T08:01:22.349Z,16.10
2023-12-27T08:06:27.639Z,15.69
2023-12-27T08:11:29.347Z,15.69
2023-12-27T08:16:31.041Z,15.05
2023-12-27T08:21:32.701Z,14.31
2023-12-27T08:26:34.377Z,15.24
2023-12-27T08:31:36.172Z,13.23
2023-12-27T08:36:38.084Z,13.29
2023-12-27T08:41:39.818Z,15.04
2023-12-27T08:46:41.523Z,13.32
2023-12-27T08:51:43.202Z,13.17
2023-12-27T08:56:44.962Z,14.33
2023-12-27T09:01:46.612Z,12.90
2023-12-27T09:06:48.409Z,14.64
2023-12-27T09:11:50.126Z,13.15
2023-12-27T09:16:51.816Z,15.16
2023-12-27T09:21:53.460Z,13.72
2023-12-27T09:26:55.109Z,11.92
2023-12-27T09:31:57.317Z,12.44
2023-12-27T09:36:59.134Z,12.21
2023-12-27T09:42:01.004Z,11.10
2023-12-27T09:47:03.930Z,13.33
2023-12-27T09:52:06.563Z,13.37
2023-12-27T09:57:08.709Z,13.79
2023-12-27T10:02:17.574Z,13.92
2023-12-27T10:07:22.447Z,13.06
2023-12-27T10:12:25.442Z,11.86
2023-12-27T10:17:28.650Z,12.79
2023-12-27T10:22:30.815Z,14.59
2023-12-27T10:27:32.628Z,13.12
2023-12-27T10:32:34.583Z,14.79
2023-12-27T10:37:38.968Z,13.49
2023-12-27T10:42:42.770Z,14.67
2023-12-27T10:47:47.607Z,14.48
2023-12-27T10:53:00.703Z,13.29
2023-12-27T10:58:04.424Z,14.39
2023-12-27T11:06:18.978Z,12.31
2023-12-27T11:11:22.955Z,11.20
2023-12-27T11:16:28.683Z,12.81
2023-12-27T11:21:30.917Z,13.38
2023-12-27T11:26:37.693Z,13.84
2023-12-27T11:31:40.448Z,12.72
2023-12-27T11:36:45.697Z,13.17
2023-12-27T11:41:48.924Z,12.42
2023-12-27T11:46:50.661Z,14.42
2023-12-27T11:51:52.934Z,12.90
2023-12-27T11:56:55.350Z,14.39
2023-12-27T12:01:59.744Z,11.99
2023-12-27T12:07:21.086Z,12.33
2023-12-27T12:12:24.327Z,14.76
2023-12-27T12:17:28.384Z,12.91
2023-12-27T12:22:31.368Z,13.33
2023-12-27T12:27:33.112Z,14.46
2023-12-27T12:32:40.946Z,13.47
2023-12-27T12:37:42.873Z,14.60
2023-12-27T12:42:45.710Z,14.37
2023-12-27T12:47:47.771Z,15.25
2023-12-27T12:52:50.521Z,15.19
2023-12-27T12:57:53.232Z,15.52
2023-12-27T13:02:55.251Z,15.23
2023-12-27T13:07:57.140Z,15.81
2023-12-27T13:12:59.054Z,15.52
2023-12-27T13:18:01.168Z,16.07
2023-12-27T13:23:03.622Z,15.38
2023-12-27T13:28:09.563Z,15.73
2023-12-27T13:33:13.916Z,14.11
2023-12-27T13:38:16.246Z,15.03
2023-12-27T13:43:18.127Z,13.73
2023-12-27T13:48:22.471Z,13.92
2023-12-27T13:53:24.590Z,14.14
2023-12-27T13:58:26.388Z,12.95
2023-12-27T14:03:31.785Z,11.53
2023-12-27T14:08:34.003Z,13.19
2023-12-27T14:13:35.744Z,14.33
2023-12-27T14:18:37.581Z,14.18
2023-12-27T14:23:39.389Z,13.96
2023-12-27T14:28:41.350Z,14.20
2023-12-27T14:33:45.039Z,14.06
2023-12-27T14:38:46.962Z,15.08
2023-12-27T14:43:48.868Z,13.18
2023-12-27T14:48:50.639Z,14.31
2023-12-27T14:53:52.398Z,14.71
2023-12-27T14:58:54.126Z,14.29
2023-12-27T15:03:55.949Z,14.31
2023-12-27T15:08:58.680Z,15.03
2023-12-27T15:14:00.528Z,13.19
2023-12-27T15:19:02.494Z,14.58
2023-12-27T15:24:04.573Z,15.23
2023-12-27T15:29:06.329Z,15.43
2023-12-27T15:34:09.373Z,13.91
2023-12-27T15:39:11.322Z,15.48
2023-12-27T15:44:13.643Z,14.97
2023-12-27T15:49:15.657Z,14.32
2023-12-27T15:54:17.781Z,15.14
2023-12-27T15:59:20.704Z,15.06
2023-12-27T16:04:22.730Z,15.27
2023-12-27T16:09:24.666Z,15.15
2023-12-27T16:14:26.372Z,15.10
2023-12-27T16:19:28.366Z,13.87
2023-12-27T16:24:30.176Z,14.54
2023-12-27T16:29:32.669Z,14.05
2023-12-27T16:34:34.490Z,13.32
2023-12-27T16:39:36.358Z,14.21
2023-12-27T16:44:38.238Z,13.98
2023-12-27T16:49:40.026Z,14.17
2023-12-27T16:54:41.954Z,13.33
2023-12-27T16:59:43.780Z,14.10
2023-12-27T17:04:45.546Z,14.37
2023-12-27T17:09:49.379Z,14.47
2023-12-27T17:14:52.874Z,13.06
2023-12-27T17:19:54.562Z,13.02
2023-12-27T17:24:56.401Z,13.37
2023-12-27T17:29:58.103Z,13.39
2023-12-27T17:34:59.767Z,12.17
2023-12-27T17:40:01.958Z,11.93
2023-12-27T17:45:05.196Z,11.45
2023-12-27T17:50:08.147Z,11.39
2023-12-27T17:55:09.865Z,12.06
2023-12-27T18:00:13.559Z,10.37
2023-12-27T18:05:15.378Z,11.01
2023-12-27T18:10:17.196Z,10.25
2023-12-27T18:15:18.947Z,10.79
2023-12-27T18:20:20.980Z,11.99
2023-12-27T18:25:22.732Z,11.70
2023-12-27T18:30:24.921Z,12.26
2023-12-27T18:35:26.859Z,10.50
2023-12-27T18:40:28.798Z,10.77
2023-12-27T18:45:30.495Z,11.05
2023-12-27T18:50:32.335Z,7.98
2023-12-27T18:55:34.386Z,8.79
2023-12-27T19:00:36.081Z,9.55
2023-12-27T19:05:37.844Z,10.74
2023-12-27T19:10:39.531Z,10.06
2023-12-27T19:15:41.326Z,11.35
2023-12-27T19:20:43.140Z,9.92
2023-12-27T19:25:44.839Z,8.48
2023-12-27T19:30:47.996Z,7.91
2023-12-27T19:35:49.779Z,9.84
2023-12-27T19:40:51.533Z,8.36
2023-12-27T19:45:53.363Z,6.21
2023-12-27T19:50:56.093Z,6.78
2023-12-27T19:55:57.817Z,7.39
2023-12-27T20:01:00.650Z,11.42
2023-12-27T20:06:05.587Z,10.64
2023-12-27T20:11:07.569Z,11.25
2023-12-27T20:16:09.523Z,9.56
2023-12-27T20:21:11.259Z,8.40
2023-12-27T20:26:13.166Z,8.52
2023-12-27T20:31:15.025Z,8.60
2023-12-27T20:36:16.889Z,9.61
2023-12-27T20:41:20.692Z,8.92
2023-12-27T20:46:22.395Z,9.06
2023-12-27T20:51:24.130Z,8.23
2023-12-27T20:56:25.882Z,9.22
2023-12-27T21:01:27.679Z,8.59
2023-12-27T21:06:29.501Z,9.47
2023-12-27T21:11:38.033Z,9.08
2023-12-27T21:16:41.070Z,8.85
2023-12-27T21:21:46.034Z,9.20
2023-12-27T21:26:47.970Z,8.57
2023-12-27T21:31:49.751Z,8.58
2023-12-27T21:36:52.176Z,9.09
2023-12-27T21:41:55.317Z,9.73
2023-12-27T21:46:57.034Z,9.65
2023-12-27T21:51:58.901Z,9.34
2023-12-27T21:57:00.650Z,10.22
2023-12-27T22:02:02.716Z,10.04
2023-12-27T22:07:06.695Z,11.19
2023-12-27T22:12:10.198Z,10.84
2023-12-27T22:17:12.079Z,9.61
2023-12-27T22:22:14.420Z,9.26
2023-12-27T22:27:16.181Z,10.18
2023-12-27T22:32:17.858Z,9.84
2023-12-27T22:37:19.591Z,9.52
2023-12-27T22:42:21.356Z,11.54
2023-12-27T22:47:25.993Z,11.55
2023-12-27T22:52:27.888Z,12.03
2023-12-27T22:57:29.599Z,9.54
2023-12-27T23:02:31.992Z,11.47
2023-12-27T23:07:33.828Z,8.65
2023-12-27T23:12:35.661Z,10.74
2023-12-27T23:17:40.234Z,8.66
2023-12-27T23:22:42.074Z,10.69
2023-12-27T23:27:43.840Z,11.06
2023-12-27T23:32:51.015Z,7.34
2023-12-27T23:37:53.692Z,7.81
2023-12-27T23:42:55.399Z,7.88
2023-12-27T23:47:57.412Z,9.57
2023-12-27T23:52:59.329Z,8.88
2023-12-27T23:58:01.264Z,9.01
